sensor_id;sensor_type;location;lat;lon;timestamp;P1;durP1;ratioP1;P2;durP2;ratioP2
151;SDS011;68;48.792;9.164;2024-03-02T00:01:07;29.02;;;26.92;;
151;SDS011;68;48.792;9.164;2024-03-02T00:03:32;27.70;;;26.30;;
151;SDS011;68;48.792;9.164;2024-03-02T00:05:59;30.20;;;26.98;;
151;SDS011;68;48.792;9.164;2024-03-02T00:08:26;30.38;;;26.88;;
151;SDS011;68;48.792;9.164;2024-03-02T00:10:56;27.33;;;25.35;;
151;SDS011;68;48.792;9.164;2024-03-02T00:13:24;26.27;;;24.95;;
151;SDS011;68;48.792;9.164;2024-03-02T00:15:51;28.48;;;26.05;;
151;SDS011;68;48.792;9.164;2024-03-02T00:18:25;28.10;;;26.20;;
151;SDS011;68;48.792;9.164;2024-03-02T00:20:53;29.33;;;27.58;;
151;SDS011;68;48.792;9.164;2024-03-02T00:23:21;28.17;;;25.95;;
151;SDS011;68;48.792;9.164;2024-03-02T00:25:49;27.13;;;25.83;;
151;SDS011;68;48.792;9.164;2024-03-02T00:28:19;26.60;;;25.30;;
151;SDS011;68;48.792;9.164;2024-03-02T00:30:51;28.88;;;26.50;;
151;SDS011;68;48.792;9.164;2024-03-02T00:33:26;27.27;;;25.67;;
151;SDS011;68;48.792;9.164;2024-03-02T00:35:54;26.33;;;25.02;;
151;SDS011;68;48.792;9.164;2024-03-02T00:38:20;26.55;;;25.20;;
151;SDS011;68;48.792;9.164;2024-03-02T00:40:47;24.75;;;23.55;;
151;SDS011;68;48.792;9.164;2024-03-02T00:43:23;27.67;;;24.83;;
151;SDS011;68;48.792;9.164;2024-03-02T00:46:08;27.27;;;25.02;;
151;SDS011;68;48.792;9.164;2024-03-02T00:48:36;26.75;;;25.45;;
151;SDS011;68;48.792;9.164;2024-03-02T00:51:03;29.40;;;26.42;;
151;SDS011;68;48.792;9.164;2024-03-02T00:53:30;26.83;;;25.52;;
151;SDS011;68;48.792;9.164;2024-03-02T00:55:58;26.42;;;25.13;;
151;SDS011;68;48.792;9.164;2024-03-02T00:58:25;28.45;;;24.30;;
151;SDS011;68;48.792;9.164;2024-03-02T01:00:52;25.65;;;24.00;;
151;SDS011;68;48.792;9.164;2024-03-02T01:03:19;27.27;;;24.67;;
151;SDS011;68;48.792;9.164;2024-03-02T01:05:47;26.15;;;24.85;;
151;SDS011;68;48.792;9.164;2024-03-02T01:08:14;26.02;;;24.42;;
151;SDS011;68;48.792;9.164;2024-03-02T01:10:41;25.75;;;24.42;;
151;SDS011;68;48.792;9.164;2024-03-02T01:13:08;25.27;;;24.00;;
151;SDS011;68;48.792;9.164;2024-03-02T01:15:35;25.38;;;24.08;;
151;SDS011;68;48.792;9.164;2024-03-02T01:18:01;26.13;;;24.83;;
151;SDS011;68;48.792;9.164;2024-03-02T01:20:28;26.08;;;24.27;;
151;SDS011;68;48.792;9.164;2024-03-02T01:22:57;26.05;;;24.17;;
151;SDS011;68;48.792;9.164;2024-03-02T01:25:23;27.75;;;23.90;;
151;SDS011;68;48.792;9.164;2024-03-02T01:27:50;25.80;;;24.50;;
151;SDS011;68;48.792;9.164;2024-03-02T01:30:17;25.77;;;24.48;;
151;SDS011;68;48.792;9.164;2024-03-02T01:32:43;30.58;;;24.42;;
151;SDS011;68;48.792;9.164;2024-03-02T01:35:10;26.10;;;24.80;;
151;SDS011;68;48.792;9.164;2024-03-02T01:37:37;25.80;;;24.38;;
151;SDS011;68;48.792;9.164;2024-03-02T01:40:06;25.48;;;24.17;;
151;SDS011;68;48.792;9.164;2024-03-02T01:42:34;24.77;;;23.58;;
151;SDS011;68;48.792;9.164;2024-03-02T01:45:02;25.95;;;24.65;;
151;SDS011;68;48.792;9.164;2024-03-02T01:47:29;27.80;;;25.13;;
151;SDS011;68;48.792;9.164;2024-03-02T01:49:57;25.75;;;24.25;;
151;SDS011;68;48.792;9.164;2024-03-02T01:52:24;25.00;;;23.80;;
151;SDS011;68;48.792;9.164;2024-03-02T01:54:51;27.05;;;25.75;;
151;SDS011;68;48.792;9.164;2024-03-02T01:57:19;26.42;;;25.10;;
151;SDS011;68;48.792;9.164;2024-03-02T01:59:46;25.63;;;24.35;;
151;SDS011;68;48.792;9.164;2024-03-02T02:02:13;26.23;;;24.92;;
151;SDS011;68;48.792;9.164;2024-03-02T02:04:40;26.80;;;25.50;;
151;SDS011;68;48.792;9.164;2024-03-02T02:07:07;28.25;;;25.88;;
151;SDS011;68;48.792;9.164;2024-03-02T02:09:34;27.38;;;25.83;;
151;SDS011;68;48.792;9.164;2024-03-02T02:12:00;27.58;;;26.20;;
151;SDS011;68;48.792;9.164;2024-03-02T02:14:30;26.33;;;24.83;;
151;SDS011;68;48.792;9.164;2024-03-02T02:16:57;27.52;;;25.67;;
151;SDS011;68;48.792;9.164;2024-03-02T02:19:24;27.35;;;25.98;;
151;SDS011;68;48.792;9.164;2024-03-02T02:21:52;30.42;;;25.90;;
151;SDS011;68;48.792;9.164;2024-03-02T02:24:18;26.60;;;25.05;;
151;SDS011;68;48.792;9.164;2024-03-02T02:26:45;28.02;;;26.50;;
151;SDS011;68;48.792;9.164;2024-03-02T02:29:12;28.05;;;26.63;;
151;SDS011;68;48.792;9.164;2024-03-02T02:31:39;29.17;;;27.77;;
151;SDS011;68;48.792;9.164;2024-03-02T02:34:06;29.70;;;27.50;;
151;SDS011;68;48.792;9.164;2024-03-02T02:36:34;28.27;;;26.15;;
151;SDS011;68;48.792;9.164;2024-03-02T02:39:04;27.10;;;25.80;;
151;SDS011;68;48.792;9.164;2024-03-02T02:41:32;31.00;;;26.38;;
151;SDS011;68;48.792;9.164;2024-03-02T02:43:59;30.73;;;27.15;;
151;SDS011;68;48.792;9.164;2024-03-02T02:46:26;27.67;;;26.27;;
151;SDS011;68;48.792;9.164;2024-03-02T02:48:53;30.60;;;26.85;;
151;SDS011;68;48.792;9.164;2024-03-02T02:51:19;31.13;;;28.75;;
151;SDS011;68;48.792;9.164;2024-03-02T02:53:46;29.42;;;27.85;;
151;SDS011;68;48.792;9.164;2024-03-02T02:56:14;31.02;;;28.40;;
151;SDS011;68;48.792;9.164;2024-03-02T02:58:41;36.90;;;29.45;;
151;SDS011;68;48.792;9.164;2024-03-02T03:01:08;28.73;;;27.35;;
151;SDS011;68;48.792;9.164;2024-03-02T03:03:34;30.90;;;28.75;;
151;SDS011;68;48.792;9.164;2024-03-02T03:06:01;33.55;;;29.08;;
151;SDS011;68;48.792;9.164;2024-03-02T03:08:28;30.10;;;27.95;;
151;SDS011;68;48.792;9.164;2024-03-02T03:10:55;32.20;;;28.15;;
151;SDS011;68;48.792;9.164;2024-03-02T03:13:23;30.35;;;27.60;;
151;SDS011;68;48.792;9.164;2024-03-02T03:15:50;31.92;;;28.83;;
151;SDS011;68;48.792;9.164;2024-03-02T03:18:17;33.47;;;29.90;;
151;SDS011;68;48.792;9.164;2024-03-02T03:20:44;33.67;;;28.45;;
151;SDS011;68;48.792;9.164;2024-03-02T03:23:11;32.60;;;28.60;;
151;SDS011;68;48.792;9.164;2024-03-02T03:25:40;29.83;;;27.80;;
151;SDS011;68;48.792;9.164;2024-03-02T03:28:07;31.45;;;29.08;;
151;SDS011;68;48.792;9.164;2024-03-02T03:30:36;32.70;;;30.00;;
151;SDS011;68;48.792;9.164;2024-03-02T03:33:03;34.72;;;28.83;;
151;SDS011;68;48.792;9.164;2024-03-02T03:35:31;32.90;;;29.23;;
151;SDS011;68;48.792;9.164;2024-03-02T03:37:57;29.05;;;26.23;;
151;SDS011;68;48.792;9.164;2024-03-02T03:40:24;34.92;;;30.92;;
151;SDS011;68;48.792;9.164;2024-03-02T03:42:50;37.03;;;31.20;;
151;SDS011;68;48.792;9.164;2024-03-02T03:45:17;33.15;;;30.42;;
151;SDS011;68;48.792;9.164;2024-03-02T03:47:45;31.65;;;29.33;;
151;SDS011;68;48.792;9.164;2024-03-02T03:50:13;33.20;;;29.30;;
151;SDS011;68;48.792;9.164;2024-03-02T03:52:39;31.38;;;28.88;;
151;SDS011;68;48.792;9.164;2024-03-02T03:55:06;33.40;;;29.98;;
151;SDS011;68;48.792;9.164;2024-03-02T03:57:34;34.33;;;29.20;;
151;SDS011;68;48.792;9.164;2024-03-02T04:00:00;31.42;;;28.30;;
151;SDS011;68;48.792;9.164;2024-03-02T04:02:27;31.10;;;28.23;;
151;SDS011;68;48.792;9.164;2024-03-02T04:04:55;32.45;;;29.85;;
151;SDS011;68;48.792;9.164;2024-03-02T04:07:22;32.00;;;29.00;;
151;SDS011;68;48.792;9.164;2024-03-02T04:09:49;32.17;;;29.27;;
151;SDS011;68;48.792;9.164;2024-03-02T04:12:15;32.58;;;30.20;;
151;SDS011;68;48.792;9.164;2024-03-02T04:14:42;31.35;;;29.08;;
151;SDS011;68;48.792;9.164;2024-03-02T04:17:09;32.20;;;30.02;;
151;SDS011;68;48.792;9.164;2024-03-02T04:19:35;33.15;;;30.00;;
151;SDS011;68;48.792;9.164;2024-03-02T04:22:04;32.40;;;29.95;;
151;SDS011;68;48.792;9.164;2024-03-02T04:24:30;31.40;;;29.15;;
151;SDS011;68;48.792;9.164;2024-03-02T04:26:57;34.55;;;30.73;;
151;SDS011;68;48.792;9.164;2024-03-02T04:29:24;34.28;;;31.10;;
151;SDS011;68;48.792;9.164;2024-03-02T04:31:50;33.88;;;31.02;;
151;SDS011;68;48.792;9.164;2024-03-02T04:34:17;34.40;;;31.10;;
151;SDS011;68;48.792;9.164;2024-03-02T04:36:44;34.85;;;30.58;;
151;SDS011;68;48.792;9.164;2024-03-02T04:39:12;40.47;;;31.70;;
151;SDS011;68;48.792;9.164;2024-03-02T04:41:39;33.83;;;30.75;;
151;SDS011;68;48.792;9.164;2024-03-02T04:44:05;34.75;;;30.80;;
151;SDS011;68;48.792;9.164;2024-03-02T04:46:33;38.03;;;31.45;;
151;SDS011;68;48.792;9.164;2024-03-02T04:48:59;35.00;;;31.20;;
151;SDS011;68;48.792;9.164;2024-03-02T04:51:26;36.08;;;31.35;;
151;SDS011;68;48.792;9.164;2024-03-02T04:53:53;34.30;;;31.15;;
151;SDS011;68;48.792;9.164;2024-03-02T04:56:21;34.10;;;31.15;;
151;SDS011;68;48.792;9.164;2024-03-02T04:59:09;37.20;;;31.05;;
151;SDS011;68;48.792;9.164;2024-03-02T05:01:36;35.85;;;31.48;;
151;SDS011;68;48.792;9.164;2024-03-02T05:04:02;38.38;;;31.95;;
151;SDS011;68;48.792;9.164;2024-03-02T05:06:29;37.88;;;33.45;;
151;SDS011;68;48.792;9.164;2024-03-02T05:08:56;37.88;;;31.55;;
151;SDS011;68;48.792;9.164;2024-03-02T05:11:24;35.70;;;31.23;;
151;SDS011;68;48.792;9.164;2024-03-02T05:14:08;35.45;;;31.60;;
151;SDS011;68;48.792;9.164;2024-03-02T05:16:35;39.80;;;32.80;;
151;SDS011;68;48.792;9.164;2024-03-02T05:19:03;39.15;;;31.35;;
151;SDS011;68;48.792;9.164;2024-03-02T05:21:31;35.03;;;31.10;;
151;SDS011;68;48.792;9.164;2024-03-02T05:23:58;39.17;;;31.02;;
151;SDS011;68;48.792;9.164;2024-03-02T05:26:26;37.47;;;31.17;;
151;SDS011;68;48.792;9.164;2024-03-02T05:28:53;34.75;;;29.80;;
151;SDS011;68;48.792;9.164;2024-03-02T05:31:20;33.03;;;29.38;;
151;SDS011;68;48.792;9.164;2024-03-02T05:33:47;34.55;;;30.25;;
151;SDS011;68;48.792;9.164;2024-03-02T05:36:14;35.53;;;31.77;;
151;SDS011;68;48.792;9.164;2024-03-02T05:38:40;36.45;;;30.52;;
151;SDS011;68;48.792;9.164;2024-03-02T05:41:07;35.55;;;30.83;;
151;SDS011;68;48.792;9.164;2024-03-02T05:43:35;36.17;;;31.63;;
151;SDS011;68;48.792;9.164;2024-03-02T05:46:02;33.72;;;30.55;;
151;SDS011;68;48.792;9.164;2024-03-02T05:48:29;35.15;;;30.73;;
151;SDS011;68;48.792;9.164;2024-03-02T05:50:56;33.95;;;30.10;;
151;SDS011;68;48.792;9.164;2024-03-02T05:53:22;38.20;;;31.35;;
151;SDS011;68;48.792;9.164;2024-03-02T05:55:49;39.20;;;32.15;;
151;SDS011;68;48.792;9.164;2024-03-02T05:58:18;36.63;;;30.95;;
151;SDS011;68;48.792;9.164;2024-03-02T06:00:57;36.22;;;31.17;;
151;SDS011;68;48.792;9.164;2024-03-02T06:03:24;36.30;;;32.17;;
151;SDS011;68;48.792;9.164;2024-03-02T06:05:51;38.45;;;31.90;;
151;SDS011;68;48.792;9.164;2024-03-02T06:08:17;33.13;;;28.98;;
151;SDS011;68;48.792;9.164;2024-03-02T06:10:44;35.00;;;31.25;;
151;SDS011;68;48.792;9.164;2024-03-02T06:13:11;36.88;;;30.45;;
151;SDS011;68;48.792;9.164;2024-03-02T06:15:38;34.90;;;31.05;;
151;SDS011;68;48.792;9.164;2024-03-02T06:18:06;35.00;;;31.30;;
151;SDS011;68;48.792;9.164;2024-03-02T06:20:33;36.25;;;31.33;;
151;SDS011;68;48.792;9.164;2024-03-02T06:23:00;33.70;;;30.35;;
151;SDS011;68;48.792;9.164;2024-03-02T06:25:27;33.70;;;30.38;;
151;SDS011;68;48.792;9.164;2024-03-02T06:27:53;37.55;;;31.23;;
151;SDS011;68;48.792;9.164;2024-03-02T06:30:19;33.27;;;29.83;;
151;SDS011;68;48.792;9.164;2024-03-02T06:32:46;32.47;;;30.30;;
151;SDS011;68;48.792;9.164;2024-03-02T06:35:13;34.63;;;30.67;;
151;SDS011;68;48.792;9.164;2024-03-02T06:37:40;34.10;;;29.73;;
151;SDS011;68;48.792;9.164;2024-03-02T06:40:07;35.47;;;30.83;;
151;SDS011;68;48.792;9.164;2024-03-02T06:42:35;35.28;;;29.88;;
151;SDS011;68;48.792;9.164;2024-03-02T06:45:02;32.33;;;29.48;;
151;SDS011;68;48.792;9.164;2024-03-02T06:47:29;31.92;;;28.83;;
151;SDS011;68;48.792;9.164;2024-03-02T06:49:56;32.17;;;29.08;;
151;SDS011;68;48.792;9.164;2024-03-02T06:52:24;32.47;;;29.10;;
151;SDS011;68;48.792;9.164;2024-03-02T06:54:51;33.35;;;30.35;;
151;SDS011;68;48.792;9.164;2024-03-02T06:57:18;33.65;;;30.13;;
151;SDS011;68;48.792;9.164;2024-03-02T06:59:45;31.45;;;29.30;;
151;SDS011;68;48.792;9.164;2024-03-02T07:02:13;33.78;;;29.90;;
151;SDS011;68;48.792;9.164;2024-03-02T07:04:40;34.20;;;29.25;;
151;SDS011;68;48.792;9.164;2024-03-02T07:07:07;33.65;;;29.40;;
151;SDS011;68;48.792;9.164;2024-03-02T07:09:35;31.17;;;28.80;;
151;SDS011;68;48.792;9.164;2024-03-02T07:12:02;29.90;;;28.42;;
151;SDS011;68;48.792;9.164;2024-03-02T07:14:29;32.28;;;28.30;;
151;SDS011;68;48.792;9.164;2024-03-02T07:17:09;31.52;;;28.52;;
151;SDS011;68;48.792;9.164;2024-03-02T07:19:37;31.10;;;27.98;;
151;SDS011;68;48.792;9.164;2024-03-02T07:22:05;30.65;;;27.80;;
151;SDS011;68;48.792;9.164;2024-03-02T07:24:36;28.08;;;26.67;;
151;SDS011;68;48.792;9.164;2024-03-02T07:27:06;29.17;;;26.83;;
151;SDS011;68;48.792;9.164;2024-03-02T07:29:32;28.48;;;26.83;;
151;SDS011;68;48.792;9.164;2024-03-02T07:31:59;27.83;;;26.13;;
151;SDS011;68;48.792;9.164;2024-03-02T07:34:26;27.35;;;25.98;;
151;SDS011;68;48.792;9.164;2024-03-02T07:36:53;26.58;;;25.30;;
151;SDS011;68;48.792;9.164;2024-03-02T07:39:20;26.75;;;25.20;;
151;SDS011;68;48.792;9.164;2024-03-02T07:41:48;25.80;;;24.50;;
151;SDS011;68;48.792;9.164;2024-03-02T07:44:15;25.58;;;24.27;;
151;SDS011;68;48.792;9.164;2024-03-02T07:46:44;25.55;;;24.25;;
151;SDS011;68;48.792;9.164;2024-03-02T07:49:12;25.85;;;24.55;;
151;SDS011;68;48.792;9.164;2024-03-02T07:51:39;25.73;;;24.42;;
151;SDS011;68;48.792;9.164;2024-03-02T07:54:06;26.25;;;24.10;;
151;SDS011;68;48.792;9.164;2024-03-02T07:56:33;27.23;;;23.70;;
151;SDS011;68;48.792;9.164;2024-03-02T07:59:01;25.65;;;24.35;;
151;SDS011;68;48.792;9.164;2024-03-02T08:01:28;24.85;;;23.65;;
151;SDS011;68;48.792;9.164;2024-03-02T08:03:55;23.70;;;22.50;;
151;SDS011;68;48.792;9.164;2024-03-02T08:06:23;27.08;;;22.55;;
151;SDS011;68;48.792;9.164;2024-03-02T08:08:52;24.42;;;23.23;;
151;SDS011;68;48.792;9.164;2024-03-02T08:11:20;26.23;;;24.27;;
151;SDS011;68;48.792;9.164;2024-03-02T08:13:46;24.98;;;23.75;;
151;SDS011;68;48.792;9.164;2024-03-02T08:16:15;23.90;;;22.70;;
151;SDS011;68;48.792;9.164;2024-03-02T08:18:44;24.50;;;23.30;;
151;SDS011;68;48.792;9.164;2024-03-02T08:21:11;24.35;;;23.15;;
151;SDS011;68;48.792;9.164;2024-03-02T08:23:38;27.88;;;24.08;;
151;SDS011;68;48.792;9.164;2024-03-02T08:26:07;24.65;;;23.45;;
151;SDS011;68;48.792;9.164;2024-03-02T08:28:34;22.58;;;21.48;;
151;SDS011;68;48.792;9.164;2024-03-02T08:31:02;28.98;;;21.90;;
151;SDS011;68;48.792;9.164;2024-03-02T08:33:30;22.90;;;21.80;;
151;SDS011;68;48.792;9.164;2024-03-02T08:35:57;23.13;;;21.98;;
151;SDS011;68;48.792;9.164;2024-03-02T08:38:23;22.85;;;21.75;;
151;SDS011;68;48.792;9.164;2024-03-02T08:40:50;24.00;;;22.80;;
151;SDS011;68;48.792;9.164;2024-03-02T08:43:18;22.60;;;21.50;;
151;SDS011;68;48.792;9.164;2024-03-02T08:45:47;23.75;;;22.55;;
151;SDS011;68;48.792;9.164;2024-03-02T08:48:15;23.00;;;21.90;;
151;SDS011;68;48.792;9.164;2024-03-02T08:50:44;22.73;;;21.63;;
151;SDS011;68;48.792;9.164;2024-03-02T08:53:10;22.30;;;21.20;;
151;SDS011;68;48.792;9.164;2024-03-02T08:55:37;22.45;;;21.35;;
151;SDS011;68;48.792;9.164;2024-03-02T08:58:04;22.70;;;21.35;;
151;SDS011;68;48.792;9.164;2024-03-02T09:00:31;22.63;;;21.40;;
151;SDS011;68;48.792;9.164;2024-03-02T09:03:00;20.83;;;19.83;;
151;SDS011;68;48.792;9.164;2024-03-02T09:05:27;20.13;;;19.13;;
151;SDS011;68;48.792;9.164;2024-03-02T09:07:55;20.75;;;19.75;;
151;SDS011;68;48.792;9.164;2024-03-02T09:10:22;22.83;;;19.02;;
151;SDS011;68;48.792;9.164;2024-03-02T09:12:48;20.38;;;19.38;;
151;SDS011;68;48.792;9.164;2024-03-02T09:15:15;21.20;;;20.10;;
151;SDS011;68;48.792;9.164;2024-03-02T09:17:42;21.63;;;20.52;;
151;SDS011;68;48.792;9.164;2024-03-02T09:20:10;21.88;;;20.77;;
151;SDS011;68;48.792;9.164;2024-03-02T09:22:38;22.35;;;20.88;;
151;SDS011;68;48.792;9.164;2024-03-02T09:25:09;21.85;;;20.75;;
151;SDS011;68;48.792;9.164;2024-03-02T09:27:36;21.85;;;20.75;;
151;SDS011;68;48.792;9.164;2024-03-02T09:30:03;20.30;;;19.30;;
151;SDS011;68;48.792;9.164;2024-03-02T09:32:31;19.27;;;18.23;;
151;SDS011;68;48.792;9.164;2024-03-02T09:35:01;19.70;;;18.70;;
151;SDS011;68;48.792;9.164;2024-03-02T09:37:28;19.63;;;18.63;;
151;SDS011;68;48.792;9.164;2024-03-02T09:39:54;20.25;;;19.25;;
151;SDS011;68;48.792;9.164;2024-03-02T09:42:22;21.92;;;19.63;;
151;SDS011;68;48.792;9.164;2024-03-02T09:44:51;20.38;;;19.38;;
151;SDS011;68;48.792;9.164;2024-03-02T09:47:18;20.25;;;19.25;;
151;SDS011;68;48.792;9.164;2024-03-02T09:49:44;20.45;;;19.13;;
151;SDS011;68;48.792;9.164;2024-03-02T09:52:11;18.67;;;17.77;;
151;SDS011;68;48.792;9.164;2024-03-02T09:54:39;19.45;;;18.45;;
151;SDS011;68;48.792;9.164;2024-03-02T09:57:08;20.52;;;18.90;;
151;SDS011;68;48.792;9.164;2024-03-02T09:59:36;19.73;;;18.73;;
151;SDS011;68;48.792;9.164;2024-03-02T10:02:03;18.20;;;17.30;;
151;SDS011;68;48.792;9.164;2024-03-02T10:04:32;18.42;;;17.52;;
151;SDS011;68;48.792;9.164;2024-03-02T10:07:10;17.45;;;16.55;;
151;SDS011;68;48.792;9.164;2024-03-02T10:09:37;18.33;;;17.30;;
151;SDS011;68;48.792;9.164;2024-03-02T10:12:05;18.70;;;17.80;;
151;SDS011;68;48.792;9.164;2024-03-02T10:14:33;18.20;;;17.30;;
151;SDS011;68;48.792;9.164;2024-03-02T10:17:04;18.30;;;17.40;;
151;SDS011;68;48.792;9.164;2024-03-02T10:19:32;17.10;;;16.20;;
151;SDS011;68;48.792;9.164;2024-03-02T10:22:02;16.80;;;15.95;;
151;SDS011;68;48.792;9.164;2024-03-02T10:24:34;17.30;;;16.40;;
151;SDS011;68;48.792;9.164;2024-03-02T10:27:06;16.55;;;15.75;;
151;SDS011;68;48.792;9.164;2024-03-02T10:29:36;17.08;;;16.17;;
151;SDS011;68;48.792;9.164;2024-03-02T10:32:09;17.02;;;16.13;;
151;SDS011;68;48.792;9.164;2024-03-02T10:34:37;17.20;;;16.30;;
151;SDS011;68;48.792;9.164;2024-03-02T10:37:07;18.23;;;16.00;;
151;SDS011;68;48.792;9.164;2024-03-02T10:39:34;17.05;;;16.15;;
151;SDS011;68;48.792;9.164;2024-03-02T10:42:02;16.30;;;15.50;;
151;SDS011;68;48.792;9.164;2024-03-02T10:44:30;16.48;;;15.68;;
151;SDS011;68;48.792;9.164;2024-03-02T10:46:58;16.17;;;15.38;;
151;SDS011;68;48.792;9.164;2024-03-02T10:49:30;16.60;;;15.80;;
151;SDS011;68;48.792;9.164;2024-03-02T10:51:59;16.05;;;15.25;;
151;SDS011;68;48.792;9.164;2024-03-02T10:54:26;16.35;;;15.55;;
151;SDS011;68;48.792;9.164;2024-03-02T10:56:55;17.15;;;16.25;;
151;SDS011;68;48.792;9.164;2024-03-02T10:59:27;16.50;;;15.70;;
151;SDS011;68;48.792;9.164;2024-03-02T11:01:56;17.73;;;16.83;;
151;SDS011;68;48.792;9.164;2024-03-02T11:04:24;17.80;;;16.90;;
151;SDS011;68;48.792;9.164;2024-03-02T11:06:54;16.75;;;15.93;;
151;SDS011;68;48.792;9.164;2024-03-02T11:09:26;17.10;;;16.20;;
151;SDS011;68;48.792;9.164;2024-03-02T11:11:56;16.55;;;15.75;;
151;SDS011;68;48.792;9.164;2024-03-02T11:14:29;16.63;;;15.82;;
151;SDS011;68;48.792;9.164;2024-03-02T11:16:59;16.52;;;15.73;;
151;SDS011;68;48.792;9.164;2024-03-02T11:19:30;16.23;;;15.43;;
151;SDS011;68;48.792;9.164;2024-03-02T11:21:59;16.27;;;15.48;;
151;SDS011;68;48.792;9.164;2024-03-02T11:24:30;16.00;;;15.20;;
151;SDS011;68;48.792;9.164;2024-03-02T11:26:58;15.30;;;14.50;;
151;SDS011;68;48.792;9.164;2024-03-02T11:32:20;14.75;;;13.98;;
151;SDS011;68;48.792;9.164;2024-03-02T11:34:49;14.25;;;13.55;;
151;SDS011;68;48.792;9.164;2024-03-02T11:37:18;15.30;;;14.50;;
151;SDS011;68;48.792;9.164;2024-03-02T11:39:46;13.93;;;13.23;;
151;SDS011;68;48.792;9.164;2024-03-02T11:42:15;13.90;;;13.20;;
151;SDS011;68;48.792;9.164;2024-03-02T11:44:43;13.85;;;13.15;;
151;SDS011;68;48.792;9.164;2024-03-02T11:47:12;13.00;;;12.30;;
151;SDS011;68;48.792;9.164;2024-03-02T11:49:41;13.00;;;12.30;;
151;SDS011;68;48.792;9.164;2024-03-02T11:52:08;13.00;;;12.30;;
151;SDS011;68;48.792;9.164;2024-03-02T11:54:38;13.90;;;13.20;;
151;SDS011;68;48.792;9.164;2024-03-02T11:57:06;14.43;;;13.73;;
151;SDS011;68;48.792;9.164;2024-03-02T11:59:33;14.40;;;13.70;;
151;SDS011;68;48.792;9.164;2024-03-02T12:02:01;14.30;;;13.60;;
151;SDS011;68;48.792;9.164;2024-03-02T12:04:28;14.32;;;13.63;;
151;SDS011;68;48.792;9.164;2024-03-02T12:06:56;13.70;;;13.00;;
151;SDS011;68;48.792;9.164;2024-03-02T12:09:25;13.35;;;12.65;;
151;SDS011;68;48.792;9.164;2024-03-02T12:12:04;12.30;;;11.70;;
151;SDS011;68;48.792;9.164;2024-03-02T12:14:32;12.57;;;11.93;;
151;SDS011;68;48.792;9.164;2024-03-02T12:17:00;12.90;;;12.20;;
151;SDS011;68;48.792;9.164;2024-03-02T12:19:27;12.90;;;12.20;;
151;SDS011;68;48.792;9.164;2024-03-02T12:21:55;12.50;;;11.90;;
151;SDS011;68;48.792;9.164;2024-03-02T12:24:22;13.20;;;12.50;;
151;SDS011;68;48.792;9.164;2024-03-02T12:26:49;12.87;;;12.17;;
151;SDS011;68;48.792;9.164;2024-03-02T12:29:19;13.00;;;12.30;;
151;SDS011;68;48.792;9.164;2024-03-02T12:31:47;13.17;;;12.47;;
151;SDS011;68;48.792;9.164;2024-03-02T12:34:15;12.73;;;12.03;;
151;SDS011;68;48.792;9.164;2024-03-02T12:36:43;13.05;;;12.35;;
151;SDS011;68;48.792;9.164;2024-03-02T12:39:12;12.35;;;11.75;;
151;SDS011;68;48.792;9.164;2024-03-02T12:41:39;12.32;;;11.73;;
151;SDS011;68;48.792;9.164;2024-03-02T12:44:07;11.90;;;11.30;;
151;SDS011;68;48.792;9.164;2024-03-02T12:46:35;12.25;;;11.65;;
151;SDS011;68;48.792;9.164;2024-03-02T12:49:05;12.30;;;11.70;;
151;SDS011;68;48.792;9.164;2024-03-02T12:51:35;13.48;;;12.15;;
151;SDS011;68;48.792;9.164;2024-03-02T12:54:02;12.20;;;11.60;;
151;SDS011;68;48.792;9.164;2024-03-02T12:56:30;11.88;;;11.27;;
151;SDS011;68;48.792;9.164;2024-03-02T12:58:57;12.43;;;11.82;;
151;SDS011;68;48.792;9.164;2024-03-02T13:01:24;12.38;;;11.77;;
151;SDS011;68;48.792;9.164;2024-03-02T13:03:53;12.50;;;11.90;;
151;SDS011;68;48.792;9.164;2024-03-02T13:06:22;11.95;;;11.35;;
151;SDS011;68;48.792;9.164;2024-03-02T13:08:52;12.40;;;11.80;;
151;SDS011;68;48.792;9.164;2024-03-02T13:11:20;12.60;;;11.95;;
151;SDS011;68;48.792;9.164;2024-03-02T13:13:47;13.18;;;12.48;;
151;SDS011;68;48.792;9.164;2024-03-02T13:16:14;13.10;;;12.40;;
151;SDS011;68;48.792;9.164;2024-03-02T13:18:44;12.30;;;11.70;;
151;SDS011;68;48.792;9.164;2024-03-02T13:21:12;12.80;;;12.10;;
151;SDS011;68;48.792;9.164;2024-03-02T13:23:39;12.52;;;11.90;;
151;SDS011;68;48.792;9.164;2024-03-02T13:26:06;12.73;;;12.02;;
151;SDS011;68;48.792;9.164;2024-03-02T13:28:35;12.48;;;11.88;;
151;SDS011;68;48.792;9.164;2024-03-02T13:31:02;12.30;;;11.70;;
151;SDS011;68;48.792;9.164;2024-03-02T13:33:29;12.73;;;12.02;;
151;SDS011;68;48.792;9.164;2024-03-02T13:35:57;12.80;;;12.10;;
151;SDS011;68;48.792;9.164;2024-03-02T13:38:26;13.10;;;12.40;;
151;SDS011;68;48.792;9.164;2024-03-02T13:40:52;12.73;;;12.02;;
151;SDS011;68;48.792;9.164;2024-03-02T13:43:19;12.45;;;11.85;;
151;SDS011;68;48.792;9.164;2024-03-02T13:45:46;12.82;;;12.13;;
151;SDS011;68;48.792;9.164;2024-03-02T13:48:13;12.15;;;11.55;;
151;SDS011;68;48.792;9.164;2024-03-02T13:50:40;13.20;;;12.50;;
151;SDS011;68;48.792;9.164;2024-03-02T13:53:07;12.40;;;11.80;;
151;SDS011;68;48.792;9.164;2024-03-02T13:55:35;12.38;;;11.77;;
151;SDS011;68;48.792;9.164;2024-03-02T13:58:03;12.90;;;12.20;;
151;SDS011;68;48.792;9.164;2024-03-02T14:00:30;12.98;;;12.05;;
151;SDS011;68;48.792;9.164;2024-03-02T14:02:57;12.70;;;12.00;;
151;SDS011;68;48.792;9.164;2024-03-02T14:05:23;13.15;;;12.45;;
151;SDS011;68;48.792;9.164;2024-03-02T14:07:50;13.25;;;12.55;;
151;SDS011;68;48.792;9.164;2024-03-02T14:10:17;13.02;;;12.32;;
151;SDS011;68;48.792;9.164;2024-03-02T14:12:48;13.30;;;12.60;;
151;SDS011;68;48.792;9.164;2024-03-02T14:15:15;12.75;;;12.05;;
151;SDS011;68;48.792;9.164;2024-03-02T14:17:42;13.15;;;12.45;;
151;SDS011;68;48.792;9.164;2024-03-02T14:20:09;12.60;;;11.95;;
151;SDS011;68;48.792;9.164;2024-03-02T14:22:37;12.60;;;11.95;;
151;SDS011;68;48.792;9.164;2024-03-02T14:25:04;13.35;;;12.15;;
151;SDS011;68;48.792;9.164;2024-03-02T14:27:31;13.32;;;12.63;;
151;SDS011;68;48.792;9.164;2024-03-02T14:30:00;13.00;;;12.30;;
151;SDS011;68;48.792;9.164;2024-03-02T14:32:26;13.00;;;12.30;;
151;SDS011;68;48.792;9.164;2024-03-02T14:34:53;13.23;;;12.52;;
151;SDS011;68;48.792;9.164;2024-03-02T14:37:20;12.90;;;12.20;;
151;SDS011;68;48.792;9.164;2024-03-02T14:39:47;12.82;;;12.13;;
151;SDS011;68;48.792;9.164;2024-03-02T14:42:15;13.40;;;12.73;;
151;SDS011;68;48.792;9.164;2024-03-02T14:44:42;12.50;;;11.90;;
151;SDS011;68;48.792;9.164;2024-03-02T14:47:10;12.35;;;11.75;;
151;SDS011;68;48.792;9.164;2024-03-02T14:49:37;12.90;;;12.20;;
151;SDS011;68;48.792;9.164;2024-03-02T14:52:05;12.70;;;12.00;;
151;SDS011;68;48.792;9.164;2024-03-02T14:54:32;12.80;;;12.10;;
151;SDS011;68;48.792;9.164;2024-03-02T14:57:00;12.55;;;11.93;;
151;SDS011;68;48.792;9.164;2024-03-02T14:59:27;13.70;;;13.00;;
151;SDS011;68;48.792;9.164;2024-03-02T15:01:54;12.90;;;12.20;;
151;SDS011;68;48.792;9.164;2024-03-02T15:04:23;12.70;;;12.00;;
151;SDS011;68;48.792;9.164;2024-03-02T15:06:49;13.32;;;12.48;;
151;SDS011;68;48.792;9.164;2024-03-02T15:09:16;13.07;;;12.25;;
151;SDS011;68;48.792;9.164;2024-03-02T15:11:44;13.55;;;12.85;;
151;SDS011;68;48.792;9.164;2024-03-02T15:14:11;13.02;;;12.32;;
151;SDS011;68;48.792;9.164;2024-03-02T15:16:38;12.82;;;12.10;;
151;SDS011;68;48.792;9.164;2024-03-02T15:19:05;12.75;;;12.05;;
151;SDS011;68;48.792;9.164;2024-03-02T15:21:33;13.15;;;12.45;;
151;SDS011;68;48.792;9.164;2024-03-02T15:24:00;13.15;;;12.45;;
151;SDS011;68;48.792;9.164;2024-03-02T15:26:27;12.40;;;11.80;;
151;SDS011;68;48.792;9.164;2024-03-02T15:28:54;12.48;;;11.80;;
151;SDS011;68;48.792;9.164;2024-03-02T15:31:23;12.98;;;12.27;;
151;SDS011;68;48.792;9.164;2024-03-02T15:33:49;13.00;;;12.30;;
151;SDS011;68;48.792;9.164;2024-03-02T15:36:18;13.45;;;12.75;;